Time;durP1;ratioP1;P1;durP2;ratioP2;P2;SDS_P1;SDS_P2;PMS_P1;PMS_P2;Temp;Humidity;BMP_temperature;BMP_pressure;BME280_temperature;BME280_humidity;BME280_pressure;Samples;Min_cycle;Max_cycle;Signal;HPM_P1;HPM_P2
2021/05/23 00:01:17;;;;;;;19.67;4.25;;;;;;;10.51;66.06;98484.27;2041187;87;21109;-70
2021/05/23 00:04:19;;;;;;;22.60;5.78;;;;;;;10.53;65.94;98487.16;2041221;87;21076;-64
2021/05/23 00:07:20;;;;;;;21.90;5.12;;;;;;;10.53;66.01;98487.61;2041255;87;21121;-65
2021/05/23 00:10:22;;;;;;;18.73;4.55;;;;;;;10.49;66.07;98481.74;2041704;87;21029;-64
2021/05/23 00:13:23;;;;;;;19.27;4.33;;;;;;;10.47;66.20;98478.36;2041476;87;20981;-65
2021/05/23 00:16:26;;;;;;;19.67;4.27;;;;;;;10.43;66.30;98486.09;2041746;87;21060;-68
2021/05/23 00:19:27;;;;;;;18.30;4.10;;;;;;;10.46;66.71;98483.27;2041206;87;21594;-66
2021/05/23 00:22:29;;;;;;;17.02;3.90;;;;;;;10.47;66.53;98484.92;2041218;87;21041;-64
2021/05/23 00:25:30;;;;;;;22.77;4.60;;;;;;;10.48;66.52;98484.47;2035563;87;21120;-64
2021/05/23 00:28:32;;;;;;;21.95;4.53;;;;;;;10.47;66.41;98490.16;2033363;87;21572;-64
2021/05/23 00:31:33;;;;;;;17.87;3.83;;;;;;;10.50;66.30;98486.06;2033540;87;21142;-64
2021/05/23 00:34:35;;;;;;;17.75;4.12;;;;;;;10.55;66.28;98487.88;2033454;87;21037;-64
2021/05/23 00:37:36;;;;;;;21.48;4.25;;;;;;;10.58;66.21;98486.84;2033345;87;21567;-65
2021/05/23 00:40:38;;;;;;;16.40;3.85;;;;;;;10.55;66.08;98488.37;2033379;87;21033;-66
2021/05/23 00:43:39;;;;;;;20.97;4.50;;;;;;;10.53;66.37;98492.41;2033451;87;21037;-64
2021/05/23 00:46:41;;;;;;;20.60;4.30;;;;;;;10.59;66.59;98497.72;2033099;87;21567;-64
2021/05/23 00:49:42;;;;;;;19.77;4.50;;;;;;;10.58;66.51;98494.23;2033394;87;21021;-64
2021/05/23 00:52:44;;;;;;;19.55;4.37;;;;;;;10.56;66.90;98492.68;2033436;88;21120;-66
2021/05/23 00:55:45;;;;;;;17.27;3.90;;;;;;;10.53;67.06;98498.10;2033388;87;21057;-64
2021/05/23 00:58:47;;;;;;;17.17;4.42;;;;;;;10.50;67.11;98505.72;2033371;87;21089;-66
2021/05/23 01:01:49;;;;;;;16.17;3.85;;;;;;;10.48;67.46;98502.83;2033353;87;21535;-65
2021/05/23 01:04:50;;;;;;;17.95;4.10;;;;;;;10.43;67.66;98507.52;2033310;87;21049;-65
2021/05/23 01:07:52;;;;;;;19.02;4.37;;;;;;;10.37;67.98;98510.93;2033369;87;21033;-65
2021/05/23 01:10:53;;;;;;;19.55;4.40;;;;;;;10.34;68.18;98508.52;2033563;87;21124;-65
2021/05/23 01:13:55;;;;;;;18.85;4.17;;;;;;;10.33;68.32;98503.31;2033344;87;21028;-64
2021/05/23 01:16:56;;;;;;;16.67;3.50;;;;;;;10.31;68.34;98502.09;2033234;87;21582;-65
2021/05/23 01:19:57;;;;;;;15.63;3.67;;;;;;;10.31;68.16;98501.27;2033261;87;21211;-65
2021/05/23 01:22:59;;;;;;;16.52;4.22;;;;;;;10.26;68.42;98499.41;2033201;87;21544;-66
2021/05/23 01:29:04;;;;;;;17.90;4.45;;;;;;;10.19;68.62;98499.81;2019179;87;21663;-66
2021/05/23 01:32:06;;;;;;;16.42;4.12;;;;;;;10.15;68.53;98500.12;2041474;87;21043;-64
2021/05/23 01:35:07;;;;;;;15.72;4.03;;;;;;;10.06;69.06;98498.92;2041329;87;21128;-64
2021/05/23 01:38:09;;;;;;;17.73;4.25;;;;;;;10.00;69.26;98504.09;2041462;87;21025;-64
2021/05/23 01:41:10;;;;;;;16.55;3.80;;;;;;;9.93;68.83;98508.04;2041426;87;21104;-65
2021/05/23 01:44:11;;;;;;;17.32;4.30;;;;;;;9.88;69.03;98504.41;2041313;87;21049;-65
2021/05/23 01:47:13;;;;;;;18.12;4.20;;;;;;;9.80;69.17;98502.73;2041403;87;21172;-65
2021/05/23 01:50:14;;;;;;;20.48;4.30;;;;;;;9.79;69.33;98501.52;2041287;87;21540;-65
2021/05/23 01:53:16;;;;;;;17.82;4.22;;;;;;;9.75;70.10;98501.34;2041445;87;21128;-64
2021/05/23 01:56:17;;;;;;;21.27;5.15;;;;;;;9.70;69.79;98507.70;2041290;87;21045;-64
2021/05/23 01:59:18;;;;;;;18.25;4.28;;;;;;;9.65;69.78;98507.13;2041297;87;21104;-65
2021/05/23 02:02:20;;;;;;;18.40;4.08;;;;;;;9.63;70.37;98505.09;2041388;87;21001;-64
2021/05/23 02:05:21;;;;;;;19.50;4.42;;;;;;;9.61;70.08;98508.29;2041299;87;21654;-64
2021/05/23 02:08:23;;;;;;;16.97;4.70;;;;;;;9.57;70.13;98512.48;2041495;87;21036;-64
2021/05/23 02:11:24;;;;;;;18.95;4.12;;;;;;;9.51;70.13;98509.31;2041288;87;21104;-65
2021/05/23 02:14:26;;;;;;;15.53;4.22;;;;;;;9.47;70.30;98512.23;2041222;87;21088;-64
2021/05/23 02:17:27;;;;;;;19.48;4.50;;;;;;;9.42;70.36;98510.34;2041408;87;21025;-63
2021/05/23 02:20:29;;;;;;;19.52;5.12;;;;;;;9.39;70.32;98513.98;2041394;87;21132;-64
2021/05/23 02:23:31;;;;;;;17.40;4.50;;;;;;;9.36;70.31;98514.17;2041503;87;21084;-64
2021/05/23 02:26:33;;;;;;;19.15;4.95;;;;;;;9.30;70.37;98514.08;2039486;86;21096;-65
2021/05/23 02:29:34;;;;;;;22.13;5.28;;;;;;;9.23;70.35;98509.33;2039200;87;21115;-64
2021/05/23 02:32:36;;;;;;;21.27;5.12;;;;;;;9.22;70.28;98515.00;2018093;88;21055;-64
2021/05/23 02:35:37;;;;;;;25.05;5.67;;;;;;;9.15;70.56;98511.94;2039240;87;21657;-64
2021/05/23 02:38:38;;;;;;;22.37;6.22;;;;;;;9.06;70.76;98512.47;2018115;88;21020;-66
2021/05/23 02:41:40;;;;;;;23.18;7.25;;;;;;;9.02;70.64;98522.73;2039359;87;21043;-65
2021/05/23 02:44:41;;;;;;;22.75;7.20;;;;;;;8.93;70.91;98521.52;2017890;88;21712;-68
2021/05/23 02:47:43;;;;;;;21.77;5.90;;;;;;;8.88;70.92;98517.03;2039365;87;21062;-65
2021/05/23 02:50:44;;;;;;;25.20;6.40;;;;;;;8.88;71.06;98514.42;2017933;88;21653;-64
2021/05/23 02:53:46;;;;;;;22.77;6.92;;;;;;;8.83;70.91;98516.01;2039565;87;21056;-64
2021/05/23 02:56:47;;;;;;;27.00;7.83;;;;;;;8.75;70.95;98520.83;2017956;88;21107;-65
2021/05/23 02:59:48;;;;;;;23.02;7.67;;;;;;;8.65;71.03;98514.47;2039180;87;21043;-63
2021/05/23 03:02:50;;;;;;;26.20;6.62;;;;;;;8.57;71.45;98518.80;2018064;88;21120;-64
2021/05/23 03:05:51;;;;;;;21.33;6.12;;;;;;;8.58;71.51;98516.58;2039242;87;21518;-64
2021/05/23 03:08:53;;;;;;;21.65;6.42;;;;;;;8.56;71.68;98518.45;2018324;88;21080;-65
2021/05/23 03:11:55;;;;;;;32.30;7.30;;;;;;;8.55;71.74;98528.52;2039416;87;21562;-65
2021/05/23 03:14:56;;;;;;;23.22;6.40;;;;;;;8.60;72.03;98533.48;2018310;88;21053;-64
2021/05/23 03:17:58;;;;;;;21.80;6.28;;;;;;;8.70;71.99;98529.87;2039221;87;21027;-71
2021/05/23 03:20:59;;;;;;;21.33;5.25;;;;;;;8.75;72.33;98531.30;2017915;88;21020;-64
2021/05/23 03:24:00;;;;;;;20.23;5.08;;;;;;;8.85;72.00;98532.91;2039323;87;21178;-64
2021/05/23 03:27:02;;;;;;;19.73;5.42;;;;;;;9.01;72.01;98538.91;2017269;87;21064;-64
2021/05/23 03:30:04;;;;;;;20.97;5.37;;;;;;;9.25;71.77;98544.08;2041445;87;21544;-64
2021/05/23 03:33:05;;;;;;;20.48;5.65;;;;;;;9.47;71.24;98542.33;2041375;87;21136;-67
2021/05/23 03:36:06;;;;;;;19.15;5.20;;;;;;;9.62;71.24;98551.02;2041443;87;21013;-64
2021/05/23 03:39:08;;;;;;;20.48;5.55;;;;;;;9.92;70.92;98558.74;2041454;87;21113;-68
2021/05/23 03:42:09;;;;;;;25.95;5.80;;;;;;;10.10;70.37;98554.59;2041363;87;21021;-64
2021/05/23 03:45:11;;;;;;;21.33;6.05;;;;;;;10.23;69.95;98554.20;2041224;87;21674;-68
2021/05/23 03:48:12;;;;;;;22.70;6.85;;;;;;;10.37;69.87;98550.70;2041348;87;20997;-64
2021/05/23 03:51:14;;;;;;;21.65;6.85;;;;;;;10.52;69.74;98553.66;2041196;87;21600;-63
2021/05/23 03:54:15;;;;;;;19.35;6.90;;;;;;;10.77;69.69;98550.72;2041501;87;21302;-64
2021/05/23 03:57:16;;;;;;;21.90;6.80;;;;;;;11.02;69.39;98549.94;2041609;87;21084;-64
2021/05/23 04:00:18;;;;;;;26.17;6.92;;;;;;;11.25;69.04;98554.11;2041446;87;21020;-65
2021/05/23 04:03:22;;;;;;;19.63;6.00;;;;;;;11.51;68.69;98556.26;2041400;87;21203;-65
2021/05/23 04:06:23;;;;;;;24.55;5.97;;;;;;;11.76;68.39;98559.31;2019158;87;21101;-65
2021/05/23 04:09:24;;;;;;;24.75;6.47;;;;;;;11.93;68.12;98556.84;2041338;87;21037;-66
2021/05/23 04:12:30;;;;;;;24.15;7.17;;;;;;;12.08;67.76;98550.98;2041579;87;21156;-65
2021/05/23 04:15:29;;;;;;;21.73;6.67;;;;;;;12.27;67.76;98554.93;2019344;87;21057;-65
2021/05/23 04:18:31;;;;;;;20.88;6.00;;;;;;;12.44;67.38;98551.91;2041802;87;21043;-63
2021/05/23 04:21:32;;;;;;;22.65;5.83;;;;;;;12.62;66.87;98552.33;2041700;87;21104;-65
2021/05/23 04:24:34;;;;;;;24.50;6.20;;;;;;;12.91;65.95;98551.95;2041559;87;21560;-64
2021/05/23 04:27:35;;;;;;;21.20;5.62;;;;;;;12.91;65.95;98551.95;2041758;87;21414;-64
2021/05/23 04:30:36;;;;;;;21.97;5.90;;;;;;;12.95;65.84;98553.41;2041630;87;21093;-63
2021/05/23 04:33:38;;;;;;;19.63;6.10;;;;;;;13.10;65.83;98548.80;2041827;87;21109;-67
2021/05/23 04:36:39;;;;;;;21.77;5.80;;;;;;;13.21;65.55;98560.30;2041702;87;21539;-67
2021/05/23 04:39:41;;;;;;;20.67;5.60;;;;;;;13.18;64.66;98562.69;2041815;87;21125;-64
2021/05/23 04:42:42;;;;;;;23.33;6.10;;;;;;;13.26;64.90;98562.09;2041856;87;21025;-64
2021/05/23 04:45:44;;;;;;;22.22;5.80;;;;;;;13.38;64.27;98565.14;2041717;87;21137;-65
2021/05/23 04:48:45;;;;;;;19.57;5.80;;;;;;;13.50;64.68;98565.99;2041805;87;21005;-64
2021/05/23 04:51:46;;;;;;;23.03;5.73;;;;;;;13.58;64.32;98564.92;2041757;87;21548;-66
2021/05/23 04:54:48;;;;;;;22.60;5.97;;;;;;;13.72;63.99;98561.69;2041816;87;21013;-65
2021/05/23 04:57:49;;;;;;;19.80;5.83;;;;;;;13.90;64.13;98556.29;2041764;87;21120;-65
2021/05/23 05:00:51;;;;;;;22.77;6.03;;;;;;;14.06;63.94;98562.50;2041700;87;21113;-65
2021/05/23 05:03:52;;;;;;;21.03;5.70;;;;;;;14.33;62.38;98565.22;2041914;87;21037;-65
2021/05/23 05:06:54;;;;;;;20.70;5.50;;;;;;;14.53;62.83;98563.60;2041706;87;21651;-64
2021/05/23 05:09:55;;;;;;;22.37;5.62;;;;;;;14.82;63.18;98569.14;2041772;87;21020;-64
2021/05/23 05:12:57;;;;;;;21.12;5.78;;;;;;;14.92;62.22;98574.51;2041882;87;21061;-64
2021/05/23 05:15:58;;;;;;;22.33;5.60;;;;;;;15.12;61.18;98570.70;2041704;87;21617;-65
2021/05/23 05:18:59;;;;;;;23.60;6.53;;;;;;;15.07;61.82;98572.41;2041796;87;21046;-65
2021/05/23 05:22:01;;;;;;;21.60;5.73;;;;;;;15.04;61.05;98566.90;2041694;87;21665;-65
2021/05/23 05:25:02;;;;;;;22.17;5.70;;;;;;;15.19;61.63;98576.65;2041560;87;21080;-65
2021/05/23 05:28:04;;;;;;;24.13;6.97;;;;;;;15.32;60.70;98572.48;2041838;87;21090;-65
2021/05/23 05:31:05;;;;;;;24.30;6.37;;;;;;;15.49;59.81;98578.98;2041546;87;21584;-65
2021/05/23 05:34:07;;;;;;;27.73;8.65;;;;;;;15.74;60.43;98573.73;2041687;87;21057;-65
2021/05/23 05:37:10;;;;;;;24.85;6.83;;;;;;;15.94;59.39;98584.44;2018820;87;21060;-67
2021/05/23 05:40:11;;;;;;;22.90;6.67;;;;;;;16.08;58.37;98578.77;2041656;87;21527;-65
2021/05/23 05:43:13;;;;;;;22.23;6.20;;;;;;;16.24;59.74;98588.84;2041772;87;21109;-65
2021/05/23 05:46:14;;;;;;;22.73;5.57;;;;;;;16.43;58.37;98585.89;2041783;87;21223;-67
2021/05/23 05:49:16;;;;;;;20.72;5.75;;;;;;;16.32;58.20;98580.70;2041555;87;21586;-65
2021/05/23 05:52:17;;;;;;;21.37;5.37;;;;;;;16.21;58.29;98582.50;2041692;87;21164;-65
2021/05/23 05:55:19;;;;;;;22.23;5.70;;;;;;;16.16;59.09;98582.55;2041664;87;21033;-65
2021/05/23 05:58:20;;;;;;;21.77;5.62;;;;;;;16.10;59.16;98582.61;2041543;87;21001;-66
2021/05/23 06:01:22;;;;;;;22.90;5.97;;;;;;;16.28;59.45;98575.69;2041675;87;20990;-65
2021/05/23 06:04:23;;;;;;;22.30;6.37;;;;;;;16.59;59.29;98572.11;2041528;87;21618;-66
2021/05/23 06:07:25;;;;;;;22.55;5.70;;;;;;;16.93;57.81;98568.59;2041544;87;21112;-66
2021/05/23 06:10:26;;;;;;;20.80;5.63;;;;;;;17.04;56.61;98561.47;2041728;87;21033;-65
2021/05/23 06:13:28;;;;;;;22.07;5.30;;;;;;;17.09;57.82;98562.72;2041421;87;21057;-66
2021/05/23 06:16:29;;;;;;;20.07;5.60;;;;;;;17.22;56.82;98566.90;2041540;87;21001;-65
2021/05/23 06:19:30;;;;;;;21.35;5.22;;;;;;;17.10;55.78;98560.42;2041297;87;21655;-66
2021/05/23 06:22:32;;;;;;;25.02;5.87;;;;;;;17.30;57.09;98559.08;2041476;87;21096;-66
2021/05/23 06:25:33;;;;;;;19.80;4.90;;;;;;;17.89;57.51;98561.03;2041035;87;21077;-66
2021/05/23 06:28:35;;;;;;;22.82;5.37;;;;;;;18.29;55.29;98568.34;2039326;87;21116;-65
2021/05/23 06:31:38;;;;;;;19.67;4.80;;;;;;;18.57;53.70;98574.92;2017982;88;21642;-65
2021/05/23 06:34:39;;;;;;;;;;;;;;;18.74;54.08;98579.91;2041814;87;21047;-66
2021/05/23 06:37:41;;;;;;;23.42;5.97;;;;;;;19.08;53.74;98573.42;2000769;89;20467;-66
2021/05/23 06:40:42;;;;;;;18.02;5.15;;;;;;;19.24;51.42;98572.70;2005202;88;21035;-66
2021/05/23 06:43:44;;;;;;;20.80;5.20;;;;;;;19.36;53.00;98576.77;2039466;87;21146;-69
2021/05/23 06:46:45;;;;;;;19.17;5.10;;;;;;;19.53;49.88;98571.56;2018079;88;21104;-67
2021/05/23 06:49:46;;;;;;;21.55;5.10;;;;;;;19.22;52.25;98576.00;2039448;87;21154;-65
2021/05/23 06:52:48;;;;;;;21.70;5.30;;;;;;;19.11;50.34;98572.29;2018069;88;21547;-66
2021/05/23 06:55:49;;;;;;;20.92;4.70;;;;;;;18.85;50.88;98576.52;2039453;87;21111;-67
2021/05/23 06:58:51;;;;;;;18.65;5.00;;;;;;;18.40;48.79;98587.19;2018063;88;21044;-66
2021/05/23 07:01:52;;;;;;;21.07;4.90;;;;;;;18.33;53.02;98582.48;2039460;87;21111;-66
2021/05/23 07:04:54;;;;;;;17.50;4.72;;;;;;;18.50;51.67;98584.83;2018162;88;21092;-66
2021/05/23 07:07:55;;;;;;;20.45;4.78;;;;;;;18.62;51.26;98589.42;2039783;87;21665;-66
2021/05/23 07:10:56;;;;;;;20.80;4.67;;;;;;;18.74;50.82;98591.86;2018170;88;21040;-66
2021/05/23 07:13:58;;;;;;;17.50;4.10;;;;;;;18.55;51.58;98581.72;2039344;87;21195;-66
2021/05/23 07:16:59;;;;;;;17.32;4.05;;;;;;;18.69;49.14;98592.29;2018083;88;21001;-66
2021/05/23 07:20:01;;;;;;;16.45;3.90;;;;;;;18.49;50.23;98590.30;2039416;87;21048;-66
2021/05/23 07:23:03;;;;;;;;;;;;;;;18.43;49.27;98600.16;2020573;88;21032;-66
2021/05/23 07:26:04;;;;;;;16.10;4.20;;;;;;;18.24;48.76;98601.95;2037484;87;20178;-67
2021/05/23 07:29:06;;;;;;;15.68;3.98;;;;;;;18.16;50.44;98599.22;1999282;88;21064;-66
2021/05/23 07:32:08;;;;;;;15.00;3.70;;;;;;;18.42;50.82;98604.66;2033104;87;21025;-67
2021/05/23 07:35:10;;;;;;;18.40;4.30;;;;;;;18.38;47.62;98603.27;2033227;87;21029;-66
2021/05/23 07:38:12;;;;;;;13.15;3.60;;;;;;;18.12;48.55;98603.97;2033194;88;21081;-67
2021/05/23 07:41:13;;;;;;;15.50;3.50;;;;;;;18.30;50.91;98608.48;2033199;87;21566;-66
2021/05/23 07:44:17;;;;;;;14.55;3.75;;;;;;;18.14;48.41;98605.97;2033360;87;21038;-68
2021/05/23 07:47:18;;;;;;;15.35;3.65;;;;;;;18.43;50.48;98606.33;2012910;88;21025;-66
2021/05/23 07:50:19;;;;;;;13.15;3.55;;;;;;;18.80;49.18;98596.05;2033320;87;21049;-68
2021/05/23 07:53:21;;;;;;;12.82;3.27;;;;;;;19.28;48.27;98603.32;2033367;87;21054;-66
2021/05/23 07:56:22;;;;;;;12.98;3.20;;;;;;;19.36;47.14;98599.88;2033466;87;21014;-66
2021/05/23 07:59:24;;;;;;;14.23;3.25;;;;;;;19.25;47.26;98604.11;2033408;87;21908;-67
2021/05/23 08:02:25;;;;;;;17.67;3.52;;;;;;;19.28;45.28;98605.13;2033661;87;21044;-67
2021/05/23 08:05:27;;;;;;;;;;;;;;;19.17;45.65;98596.41;2035687;88;21607;-68
2021/05/23 08:08:29;;;;;;;13.75;3.22;;;;;;;19.65;45.02;98600.91;2033337;87;20170;-66
2021/05/23 08:11:31;;;;;;;16.32;3.37;;;;;;;19.72;45.20;98603.28;2033421;87;21020;-66
2021/05/23 08:14:32;;;;;;;14.70;3.33;;;;;;;19.71;46.13;98602.08;2033529;87;20987;-67
2021/05/23 08:17:33;;;;;;;14.73;2.90;;;;;;;20.12;45.07;98606.32;2033396;87;21024;-66
2021/05/23 08:20:35;;;;;;;13.55;3.67;;;;;;;20.60;40.79;98605.30;2033484;87;21029;-66
2021/05/23 08:23:37;;;;;;;13.03;2.98;;;;;;;20.38;44.49;98599.58;2033484;87;21110;-67
2021/05/23 08:26:38;;;;;;;9.83;2.62;;;;;;;20.56;44.12;98598.66;2035516;87;21600;-67
2021/05/23 08:29:40;;;;;;;14.07;2.98;;;;;;;20.70;41.69;98604.70;2039534;87;21122;-67
2021/05/23 08:32:41;;;;;;;11.18;2.77;;;;;;;20.88;39.83;98613.05;2018203;88;21032;-66
2021/05/23 08:35:43;;;;;;;10.20;2.75;;;;;;;20.93;41.18;98601.38;2039500;87;21174;-67
2021/05/23 08:38:44;;;;;;;11.68;3.10;;;;;;;21.23;42.52;98607.06;2018283;88;21060;-67
2021/05/23 08:41:46;;;;;;;13.03;2.90;;;;;;;21.56;40.85;98599.05;2039505;87;21645;-67
2021/05/23 08:44:48;;;;;;;11.25;3.05;;;;;;;21.76;42.40;98600.33;2018262;88;21068;-67
2021/05/23 08:47:51;;;;;;;11.97;2.77;;;;;;;22.12;41.50;98605.73;2039332;87;21654;-67
2021/05/23 08:50:52;;;;;;;11.78;3.10;;;;;;;21.75;40.85;98597.36;2018282;88;21019;-67
2021/05/23 08:53:54;;;;;;;11.93;3.20;;;;;;;21.29;40.06;98607.23;2039439;87;21554;-66
2021/05/23 08:56:55;;;;;;;11.05;3.10;;;;;;;20.75;40.50;98606.36;2018286;88;21135;-67
2021/05/23 08:59:57;;;;;;;13.83;3.37;;;;;;;20.49;41.36;98609.11;2039649;87;21052;-66
2021/05/23 09:02:58;;;;;;;9.50;2.67;;;;;;;20.14;41.00;98609.67;2018117;88;21099;-66
2021/05/23 09:06:00;;;;;;;11.73;2.90;;;;;;;19.87;42.56;98608.88;2039411;87;21051;-67
2021/05/23 09:09:01;;;;;;;11.50;2.80;;;;;;;19.79;42.04;98605.34;2018238;88;21068;-67
2021/05/23 09:12:04;;;;;;;10.90;2.83;;;;;;;19.79;42.92;98595.52;2039434;87;21637;-67
2021/05/23 09:15:06;;;;;;;10.28;2.90;;;;;;;19.82;41.38;98607.67;2018057;88;21066;-66
2021/05/23 09:18:07;;;;;;;12.50;3.08;;;;;;;19.83;43.17;98602.70;2039638;87;21114;-66
2021/05/23 09:21:09;;;;;;;11.05;3.20;;;;;;;19.65;43.08;98601.39;2018279;88;21045;-67
2021/05/23 09:24:11;;;;;;;11.28;2.72;;;;;;;19.95;43.20;98601.41;2039266;87;21191;-71
2021/05/23 09:27:13;;;;;;;13.08;3.15;;;;;;;20.03;44.25;98611.28;2017187;87;21100;-67
2021/05/23 09:30:19;;;;;;;14.78;2.85;;;;;;;19.69;42.53;98611.55;2034415;87;21633;-67
2021/05/23 09:33:18;;;;;;;11.22;2.55;;;;;;;19.49;42.01;98617.58;2015964;87;21106;-67
2021/05/23 09:36:20;;;;;;;7.45;2.20;;;;;;;19.42;44.01;98612.54;2034378;87;21182;-67
2021/05/23 09:39:22;;;;;;;11.05;2.80;;;;;;;19.78;44.72;98620.41;2034479;87;21179;-66
2021/05/23 09:42:24;;;;;;;9.95;2.40;;;;;;;19.98;42.11;98607.74;2034508;87;21092;-67
2021/05/23 09:45:26;;;;;;;8.48;2.40;;;;;;;20.19;40.48;98621.17;2034352;87;21700;-66
2021/05/23 09:48:27;;;;;;;12.40;2.98;;;;;;;20.28;41.59;98624.19;2034713;87;21031;-66
2021/05/23 09:51:29;;;;;;;14.47;2.90;;;;;;;20.35;41.45;98627.88;2034484;87;21050;-67
2021/05/23 09:54:30;;;;;;;13.03;3.35;;;;;;;20.34;41.03;98627.56;2034472;87;21677;-68
2021/05/23 09:57:31;;;;;;;9.95;2.27;;;;;;;20.31;40.29;98630.52;2034528;87;21109;-67
2021/05/23 10:00:33;;;;;;;9.93;2.62;;;;;;;20.23;41.73;98641.16;2034452;87;21138;-67
2021/05/23 10:03:34;;;;;;;10.78;2.92;;;;;;;20.24;39.41;98633.01;2034456;87;21074;-67
2021/05/23 10:06:38;;;;;;;10.20;2.52;;;;;;;20.61;42.68;98632.28;2034580;87;21149;-67
2021/05/23 10:09:39;;;;;;;8.43;2.65;;;;;;;20.58;42.80;98644.09;2015947;87;21055;-68
2021/05/23 10:12:41;;;;;;;10.63;2.50;;;;;;;20.64;39.51;98643.94;2034435;87;21632;-67
2021/05/23 10:15:43;;;;;;;11.05;2.70;;;;;;;20.39;41.69;98651.86;2034473;87;21034;-70
2021/05/23 10:18:44;;;;;;;11.70;2.80;;;;;;;20.05;41.47;98654.03;2034422;87;21134;-67
2021/05/23 10:21:47;;;;;;;10.82;2.72;;;;;;;19.96;40.96;98648.34;2034512;87;21074;-66
2021/05/23 10:24:49;;;;;;;11.68;2.98;;;;;;;19.95;43.12;98656.48;2034264;87;21671;-66
2021/05/23 10:27:50;;;;;;;10.13;2.67;;;;;;;19.59;42.06;98649.91;2038393;87;21110;-67
2021/05/23 10:30:52;;;;;;;11.70;2.67;;;;;;;19.30;42.03;98661.16;2041385;87;21061;-66
2021/05/23 10:33:53;;;;;;;8.10;2.30;;;;;;;18.98;43.10;98662.53;2041402;87;21025;-67
2021/05/23 10:36:55;;;;;;;5.97;1.98;;;;;;;18.79;43.78;98666.14;2041518;87;21128;-67
2021/05/23 10:39:57;;;;;;;7.45;2.12;;;;;;;18.56;42.46;98664.40;2041376;87;21548;-69
2021/05/23 10:42:59;;;;;;;7.92;2.22;;;;;;;18.45;43.11;98660.61;2041502;87;21025;-66
2021/05/23 10:46:00;;;;;;;10.38;2.35;;;;;;;18.24;42.91;98649.72;2041523;87;21164;-67
2021/05/23 10:49:02;;;;;;;8.60;2.10;;;;;;;18.07;41.91;98671.23;2041401;87;21555;-68
2021/05/23 10:52:03;;;;;;;12.05;2.65;;;;;;;17.97;43.48;98665.13;2041528;87;21093;-66
2021/05/23 10:55:05;;;;;;;11.40;2.35;;;;;;;18.04;44.04;98665.39;2041381;87;21057;-66
2021/05/23 10:58:06;;;;;;;9.83;2.47;;;;;;;18.02;43.21;98661.56;2041337;87;21053;-67
2021/05/23 11:01:08;;;;;;;11.68;2.45;;;;;;;18.13;44.75;98665.84;2041499;87;21016;-67
2021/05/23 11:04:10;;;;;;;13.93;2.50;;;;;;;18.17;45.98;98671.20;2041330;87;21068;-66
2021/05/23 11:07:12;;;;;;;8.40;1.70;;;;;;;18.00;42.11;98671.47;2041502;87;21105;-67
2021/05/23 11:10:13;;;;;;;11.08;2.10;;;;;;;17.87;44.06;98672.25;2041351;87;21045;-66
2021/05/23 11:13:15;;;;;;;8.23;2.15;;;;;;;17.86;42.78;98669.25;2041489;87;21120;-67
2021/05/23 11:16:17;;;;;;;13.10;2.55;;;;;;;17.96;45.05;98666.13;2041371;87;21524;-66
2021/05/23 11:19:19;;;;;;;12.68;2.47;;;;;;;18.08;44.43;98679.55;2041423;87;21194;-70
2021/05/23 11:22:20;;;;;;;12.63;2.30;;;;;;;18.29;43.46;98671.88;2041374;87;21543;-69
2021/05/23 11:25:22;;;;;;;11.20;2.12;;;;;;;18.48;43.35;98678.40;2041595;87;21168;-67
2021/05/23 11:28:23;;;;;;;11.28;2.30;;;;;;;18.30;40.69;98677.03;2041288;86;21101;-66
2021/05/23 11:31:25;;;;;;;12.45;2.37;;;;;;;18.38;40.40;98684.75;2041360;87;21129;-66
2021/05/23 11:34:28;;;;;;;10.78;2.55;;;;;;;18.32;40.03;98676.38;2041594;87;21053;-66
2021/05/23 11:37:29;;;;;;;8.88;2.33;;;;;;;18.36;40.80;98682.25;2041357;87;21033;-67
2021/05/23 11:40:31;;;;;;;9.13;2.05;;;;;;;18.52;42.14;98674.97;2041353;87;21057;-67
2021/05/23 11:43:33;;;;;;;9.30;1.92;;;;;;;18.65;41.09;98672.79;2041345;87;21108;-67
2021/05/23 11:46:34;;;;;;;10.82;1.80;;;;;;;18.57;39.44;98683.31;2041484;87;21021;-66
2021/05/23 11:49:35;;;;;;;8.45;2.10;;;;;;;18.60;42.76;98682.19;2041289;87;21717;-67
2021/05/23 11:52:37;;;;;;;8.60;1.98;;;;;;;18.59;39.96;98683.16;2041476;87;21005;-66
2021/05/23 11:55:38;;;;;;;12.28;1.92;;;;;;;18.60;39.08;98682.19;2041450;87;21021;-68
2021/05/23 11:58:40;;;;;;;7.20;1.67;;;;;;;18.69;41.04;98688.78;2041312;87;21089;-66
2021/05/23 12:01:41;;;;;;;9.80;1.95;;;;;;;18.63;39.10;98681.88;2041477;87;20997;-67
2021/05/23 12:04:43;;;;;;;11.40;1.92;;;;;;;18.53;38.01;98683.26;2041325;87;21132;-66
2021/05/23 12:07:44;;;;;;;10.53;2.15;;;;;;;18.54;40.30;98684.94;2041321;87;21029;-70
2021/05/23 12:10:46;;;;;;;5.97;1.45;;;;;;;18.47;38.52;98696.63;2041495;87;21128;-66
2021/05/23 12:13:47;;;;;;;7.22;1.60;;;;;;;18.26;39.74;98691.58;2041339;87;21520;-66
2021/05/23 12:16:48;;;;;;;8.05;1.72;;;;;;;18.21;39.61;98689.84;2041329;87;21085;-67
2021/05/23 12:19:53;;;;;;;7.90;2.20;;;;;;;18.10;40.20;98694.86;2041438;87;21116;-66
2021/05/23 12:22:54;;;;;;;8.78;1.57;;;;;;;18.06;39.71;98696.13;2019536;87;21572;-68
2021/05/23 12:25:55;;;;;;;9.50;1.95;;;;;;;18.05;38.86;98689.13;2041436;87;21147;-67
2021/05/23 12:28:57;;;;;;;8.85;1.98;;;;;;;18.18;41.32;98693.61;2041510;87;21096;-68
2021/05/23 12:31:58;;;;;;;9.33;1.90;;;;;;;18.26;37.03;98695.56;2041467;87;21096;-66
2021/05/23 12:34:59;;;;;;;8.68;1.90;;;;;;;18.31;38.15;98701.25;2041463;87;21029;-66
2021/05/23 12:38:01;;;;;;;8.05;1.60;;;;;;;18.33;38.59;98690.02;2041548;87;21132;-67
2021/05/23 12:41:03;;;;;;;9.00;1.80;;;;;;;18.45;39.78;98680.03;2041457;87;21488;-67
2021/05/23 12:44:04;;;;;;;11.15;2.02;;;;;;;18.58;39.86;98681.52;2041399;87;21100;-67
2021/05/23 12:47:06;;;;;;;10.32;1.72;;;;;;;18.71;39.03;98680.66;2041697;87;21116;-67
2021/05/23 12:50:07;;;;;;;9.40;1.87;;;;;;;18.75;38.69;98679.38;2041567;87;21544;-67
2021/05/23 12:53:09;;;;;;;9.25;1.80;;;;;;;18.72;36.11;98690.78;2041685;87;21041;-67
2021/05/23 12:56:10;;;;;;;10.25;2.70;;;;;;;18.76;36.40;98689.50;2041705;87;21100;-67
2021/05/23 12:59:12;;;;;;;7.70;1.95;;;;;;;18.91;38.89;98686.72;2041585;87;21116;-67
2021/05/23 13:02:13;;;;;;;7.08;1.70;;;;;;;18.99;37.31;98680.63;2041093;87;21080;-68
2021/05/23 13:05:15;;;;;;;6.60;1.82;;;;;;;18.95;39.29;98687.23;2040060;87;21057;-66
2021/05/23 13:08:17;;;;;;;10.63;1.92;;;;;;;18.95;38.42;98687.23;2039767;87;21084;-67
2021/05/23 13:11:18;;;;;;;13.00;2.02;;;;;;;18.90;39.68;98686.87;2040266;87;21156;-67
2021/05/23 13:14:20;;;;;;;9.70;1.87;;;;;;;18.96;39.64;98683.09;2040769;87;21029;-67
2021/05/23 13:17:21;;;;;;;11.93;2.17;;;;;;;18.95;38.41;98686.76;2039837;87;21016;-67
2021/05/23 13:20:23;;;;;;;;;;;;;;;18.90;39.74;98681.55;2042977;87;21606;-66
2021/05/23 13:23:25;;;;;;;7.95;1.80;;;;;;;18.87;39.71;98685.34;2040618;87;20159;-66
2021/05/23 13:26:27;;;;;;;6.80;1.90;;;;;;;18.72;41.87;98688.13;2041181;87;21096;-65
2021/05/23 13:29:29;;;;;;;8.83;1.82;;;;;;;18.61;39.41;98682.03;2040843;86;21077;-66
2021/05/23 13:32:30;;;;;;;8.68;1.60;;;;;;;18.58;39.72;98688.98;2039723;87;21041;-65
2021/05/23 13:35:32;;;;;;;9.48;1.90;;;;;;;18.67;40.22;98697.37;2035283;87;21053;-66
2021/05/23 13:38:34;;;;;;;5.75;1.77;;;;;;;18.81;41.46;98693.89;2035212;87;21080;-66
2021/05/23 13:41:37;;;;;;;8.10;1.75;;;;;;;19.06;39.57;98702.14;2035271;87;21586;-69
2021/05/23 13:44:39;;;;;;;6.35;1.57;;;;;;;19.11;39.50;98703.36;2013097;87;21658;-68
2021/05/23 13:47:41;;;;;;;;;;;;;;;18.84;38.18;98713.00;2037687;87;21001;-66
2021/05/23 13:50:42;;;;;;;9.08;2.17;;;;;;;18.68;37.91;98720.80;2016641;88;20592;-69
2021/05/23 13:53:44;;;;;;;8.80;1.70;;;;;;;18.46;37.79;98723.34;2035549;87;21049;-67
2021/05/23 13:56:45;;;;;;;8.90;1.82;;;;;;;18.37;41.09;98717.59;2035502;87;21077;-66
2021/05/23 13:59:46;;;;;;;12.50;2.10;;;;;;;18.41;40.50;98726.94;2035365;87;21560;-67
2021/05/23 14:02:48;;;;;;;10.10;1.75;;;;;;;18.35;38.21;98740.30;2035502;87;21069;-66
2021/05/23 14:05:49;;;;;;;8.23;1.70;;;;;;;18.28;40.30;98735.23;2035322;87;21655;-66
2021/05/23 14:08:51;;;;;;;9.25;1.92;;;;;;;18.34;41.23;98733.31;2035478;87;21125;-66
2021/05/23 14:11:53;;;;;;;7.65;1.75;;;;;;;18.41;39.31;98736.23;2035352;87;21081;-68